Time;durP1;ratioP1;P1;durP2;ratioP2;P2;SDS_P1;SDS_P2;PMS_P1;PMS_P2;Temp;Humidity;BMP_temperature;BMP_pressure;BME280_temperature;BME280_humidity;BME280_pressure;Samples;Min_cycle;Max_cycle;Signal;HPM_P1;HPM_P2
2021/03/05 00:00:14;;;;;;;8.52;2.42;;;;;;;;;;5041399;28;20033;-60
2021/03/05 00:02:40;;;;;;;10.13;3.60;;;;;;;;;;5036055;28;20045;-60
2021/03/05 00:05:07;;;;;;;8.80;2.60;;;;;;;;;;5028714;28;20045;-60
2021/03/05 00:07:34;;;;;;;12.90;3.10;;;;;;;;;;5041856;28;20041;-61
2021/03/05 00:10:05;;;;;;;10.55;3.60;;;;;;;;;;5045684;28;20037;-60
2021/03/05 00:12:31;;;;;;;11.45;3.08;;;;;;;;;;5022697;28;20033;-61
2021/03/05 00:14:57;;;;;;;12.07;4.00;;;;;;;;;;5009332;28;20042;-61
2021/03/05 00:17:23;;;;;;;7.90;3.13;;;;;;;;;;5021121;28;20041;-61
2021/03/05 00:19:49;;;;;;;8.13;2.95;;;;;;;;;;5038743;28;20036;-61
2021/03/05 00:22:15;;;;;;;10.10;3.38;;;;;;;;;;5043960;28;20045;-61
2021/03/05 00:24:42;;;;;;;13.07;3.65;;;;;;;;;;5005837;28;20045;-59
2021/03/05 00:27:08;;;;;;;12.20;3.83;;;;;;;;;;5006542;28;20046;-60
2021/03/05 00:29:41;;;;;;;10.55;3.72;;;;;;;;;;5003220;28;20127;-61
2021/03/05 00:32:09;;;;;;;8.73;3.33;;;;;;;;;;5022256;28;20049;-59
2021/03/05 00:34:35;;;;;;;9.13;3.30;;;;;;;;;;5020505;28;20140;-61
2021/03/05 00:37:01;;;;;;;12.57;2.78;;;;;;;;;;5007443;28;20034;-61
2021/03/05 00:39:27;;;;;;;10.13;3.72;;;;;;;;;;5013384;28;20356;-62
2021/03/05 00:41:56;;;;;;;12.45;3.67;;;;;;;;;;5038048;28;20068;-62
2021/03/05 00:44:22;;;;;;;14.00;4.50;;;;;;;;;;4994483;28;20352;-62
2021/03/05 00:46:48;;;;;;;16.20;4.85;;;;;;;;;;5007103;28;20054;-62
2021/03/05 00:49:14;;;;;;;11.57;4.00;;;;;;;;;;5025577;28;20475;-60
2021/03/05 00:51:40;;;;;;;9.30;3.40;;;;;;;;;;5026360;28;20026;-61
2021/03/05 00:54:07;;;;;;;11.00;3.55;;;;;;;;;;5038596;28;20049;-61
2021/03/05 00:56:33;;;;;;;10.07;3.40;;;;;;;;;;5006741;28;20049;-59
2021/03/05 00:59:00;;;;;;;8.18;3.35;;;;;;;;;;5023663;28;20025;-61
2021/03/05 01:01:26;;;;;;;10.73;4.07;;;;;;;;;;5004752;28;20085;-60
2021/03/05 01:03:52;;;;;;;8.88;3.35;;;;;;;;;;5006192;28;20491;-60
2021/03/05 01:06:20;;;;;;;8.88;2.70;;;;;;;;;;5037097;28;20077;-59
2021/03/05 01:08:46;;;;;;;9.50;3.30;;;;;;;;;;5026908;28;20037;-61
2021/03/05 01:11:12;;;;;;;8.70;3.17;;;;;;;;;;5022755;28;20038;-60
2021/03/05 01:13:38;;;;;;;12.18;3.67;;;;;;;;;;5005436;28;20045;-60
2021/03/05 01:16:05;;;;;;;8.73;3.17;;;;;;;;;;5011094;28;20068;-60
2021/03/05 01:18:31;;;;;;;8.63;2.88;;;;;;;;;;5022629;28;20037;-61
2021/03/05 01:20:57;;;;;;;11.07;3.58;;;;;;;;;;5003307;28;20093;-60
2021/03/05 01:23:23;;;;;;;9.88;3.33;;;;;;;;;;5022754;28;20040;-61
2021/03/05 01:25:49;;;;;;;8.30;3.13;;;;;;;;;;5019886;28;20056;-62
2021/03/05 01:28:15;;;;;;;10.77;3.85;;;;;;;;;;5006266;28;20041;-62
2021/03/05 01:30:41;;;;;;;9.45;3.75;;;;;;;;;;5006970;28;20045;-61
2021/03/05 01:33:08;;;;;;;7.30;3.40;;;;;;;;;;5044148;28;20131;-61
2021/03/05 01:35:34;;;;;;;10.00;3.08;;;;;;;;;;5024533;28;20045;-61
2021/03/05 01:38:00;;;;;;;7.65;2.92;;;;;;;;;;5005849;28;20034;-60
2021/03/05 01:40:27;;;;;;;9.77;3.67;;;;;;;;;;5007970;28;20034;-61
2021/03/05 01:42:53;;;;;;;8.15;3.00;;;;;;;;;;5001211;28;20049;-61
2021/03/05 01:45:21;;;;;;;9.20;3.35;;;;;;;;;;5002824;28;20050;-61
2021/03/05 01:47:47;;;;;;;6.78;2.88;;;;;;;;;;5031037;28;20082;-61
2021/03/05 01:50:16;;;;;;;10.20;3.42;;;;;;;;;;5026154;28;20051;-61
2021/03/05 01:52:44;;;;;;;7.63;3.13;;;;;;;;;;5037076;28;20045;-61
2021/03/05 01:55:10;;;;;;;10.68;3.63;;;;;;;;;;5025716;28;20045;-61
2021/03/05 01:57:36;;;;;;;8.63;3.60;;;;;;;;;;5027153;28;20098;-63
2021/03/05 02:00:03;;;;;;;14.38;4.15;;;;;;;;;;5023525;28;20499;-62
2021/03/05 02:02:29;;;;;;;9.32;3.35;;;;;;;;;;5003368;28;20057;-62
2021/03/05 02:04:55;;;;;;;9.13;3.55;;;;;;;;;;5022479;28;20037;-61
2021/03/05 02:07:22;;;;;;;11.48;3.83;;;;;;;;;;5019408;28;20049;-62
2021/03/05 02:09:48;;;;;;;7.68;3.17;;;;;;;;;;5005439;28;20050;-59
2021/03/05 02:12:14;;;;;;;12.00;4.00;;;;;;;;;;5004403;28;20428;-60
2021/03/05 02:14:40;;;;;;;9.77;3.17;;;;;;;;;;5025586;28;20045;-60
2021/03/05 02:17:09;;;;;;;9.10;3.50;;;;;;;;;;5038170;28;20041;-60
2021/03/05 02:19:53;;;;;;;10.27;3.22;;;;;;;;;;5002152;28;20074;-61
2021/03/05 02:22:32;;;;;;;9.93;3.28;;;;;;;;;;4999753;28;20049;-59
2021/03/05 02:25:16;;;;;;;10.63;3.10;;;;;;;;;;5042684;28;20491;-59
2021/03/05 02:27:52;;;;;;;14.27;3.55;;;;;;;;;;5025945;28;20045;-60
2021/03/05 02:30:33;;;;;;;9.27;3.28;;;;;;;;;;5022525;28;20056;-59
2021/03/05 02:33:03;;;;;;;6.93;3.00;;;;;;;;;;5001178;28;20066;-60
2021/03/05 02:35:31;;;;;;;10.45;3.63;;;;;;;;;;5040896;28;20056;-60
2021/03/05 02:37:59;;;;;;;13.23;3.95;;;;;;;;;;5040885;28;20045;-60
2021/03/05 02:40:27;;;;;;;10.55;3.95;;;;;;;;;;4986593;28;20034;-60
2021/03/05 02:42:55;;;;;;;12.15;3.17;;;;;;;;;;5003527;28;20046;-60
2021/03/05 02:45:23;;;;;;;11.38;3.58;;;;;;;;;;5035988;28;20048;-60
2021/03/05 02:47:52;;;;;;;14.05;3.45;;;;;;;;;;5041323;28;20040;-58
2021/03/05 02:50:19;;;;;;;;;;;;;;;;;;5021157;28;20052;-61
2021/03/05 02:52:48;;;;;;;9.77;3.05;;;;;;;;;;5023827;28;19928;-62
2021/03/05 02:55:14;;;;;;;7.47;2.97;;;;;;;;;;5023670;28;20042;-61
2021/03/05 02:57:43;;;;;;;9.32;3.10;;;;;;;;;;5005747;28;20034;-59
2021/03/05 03:00:15;;;;;;;10.77;3.05;;;;;;;;;;5014110;28;20033;-60
2021/03/05 03:02:41;;;;;;;10.93;3.63;;;;;;;;;;5003762;28;20034;-60
2021/03/05 03:05:09;;;;;;;12.60;4.35;;;;;;;;;;4991131;28;20058;-60
2021/03/05 03:07:36;;;;;;;14.05;3.22;;;;;;;;;;5001012;28;20038;-62
2021/03/05 03:10:05;;;;;;;10.18;3.53;;;;;;;;;;4998837;28;20076;-62
2021/03/05 03:12:32;;;;;;;10.60;3.80;;;;;;;;;;5001388;28;20057;-61
2021/03/05 03:14:58;;;;;;;9.38;3.33;;;;;;;;;;4998528;28;20124;-61
2021/03/05 03:17:24;;;;;;;10.55;3.03;;;;;;;;;;5001270;28;20109;-61
2021/03/05 03:19:51;;;;;;;12.55;3.47;;;;;;;;;;4998364;28;20033;-61
2021/03/05 03:22:18;;;;;;;12.82;3.60;;;;;;;;;;5000658;28;20104;-60
2021/03/05 03:24:44;;;;;;;7.05;2.85;;;;;;;;;;5000077;28;20050;-62
2021/03/05 03:27:11;;;;;;;8.90;3.28;;;;;;;;;;5020012;28;20037;-61
2021/03/05 03:29:37;;;;;;;9.70;3.03;;;;;;;;;;5019880;28;20038;-60
2021/03/05 03:32:03;;;;;;;8.48;2.97;;;;;;;;;;5016587;28;20060;-61
2021/03/05 03:34:29;;;;;;;9.52;3.42;;;;;;;;;;5020490;28;20496;-60
2021/03/05 03:36:56;;;;;;;10.13;3.25;;;;;;;;;;5001811;28;20121;-62
2021/03/05 03:39:24;;;;;;;8.30;3.25;;;;;;;;;;5004774;28;20054;-59
2021/03/05 03:41:50;;;;;;;12.80;3.58;;;;;;;;;;5000260;28;20052;-59
2021/03/05 03:44:17;;;;;;;12.82;3.40;;;;;;;;;;4988408;28;20073;-59
2021/03/05 03:46:47;;;;;;;12.98;3.67;;;;;;;;;;4997882;28;20054;-59
2021/03/05 03:49:15;;;;;;;12.00;3.90;;;;;;;;;;5002517;28;20030;-61
2021/03/05 03:51:43;;;;;;;9.07;3.53;;;;;;;;;;5008407;28;20040;-61
2021/03/05 03:54:12;;;;;;;9.85;2.95;;;;;;;;;;5023348;28;20049;-62
2021/03/05 03:56:38;;;;;;;7.57;2.97;;;;;;;;;;5019588;28;20045;-59
2021/03/05 03:59:05;;;;;;;7.30;2.97;;;;;;;;;;5024785;28;20049;-59
2021/03/05 04:01:33;;;;;;;10.98;2.97;;;;;;;;;;5018404;28;20129;-60
2021/03/05 04:04:00;;;;;;;11.80;2.95;;;;;;;;;;5004335;28;20038;-60
2021/03/05 04:06:26;;;;;;;9.05;3.08;;;;;;;;;;4999285;28;20612;-59
2021/03/05 04:08:53;;;;;;;8.15;2.85;;;;;;;;;;5005214;28;20046;-61
2021/03/05 04:11:20;;;;;;;8.95;3.03;;;;;;;;;;5004353;28;20042;-62
2021/03/05 04:13:46;;;;;;;7.68;2.85;;;;;;;;;;5018454;28;20038;-61
2021/03/05 04:16:12;;;;;;;9.35;3.15;;;;;;;;;;5015732;28;20114;-59
2021/03/05 04:18:41;;;;;;;10.60;2.83;;;;;;;;;;5018418;28;20472;-57
2021/03/05 04:21:10;;;;;;;13.20;3.10;;;;;;;;;;5024358;28;20042;-59
2021/03/05 04:23:36;;;;;;;9.82;3.25;;;;;;;;;;5008194;28;20116;-59
2021/03/05 04:26:02;;;;;;;8.05;3.00;;;;;;;;;;5004586;28;20083;-60
2021/03/05 04:28:28;;;;;;;8.98;3.47;;;;;;;;;;5012889;28;20061;-60
2021/03/05 04:30:55;;;;;;;12.40;3.55;;;;;;;;;;5024455;28;20495;-63
2021/03/05 04:33:21;;;;;;;8.50;3.17;;;;;;;;;;5020345;28;20041;-62
2021/03/05 04:35:49;;;;;;;11.68;2.85;;;;;;;;;;5024262;28;20119;-60
2021/03/05 04:38:15;;;;;;;6.82;2.42;;;;;;;;;;5014317;28;20585;-61
2021/03/05 04:40:41;;;;;;;14.93;3.40;;;;;;;;;;5003657;28;20038;-60
2021/03/05 04:43:07;;;;;;;10.02;3.45;;;;;;;;;;5004640;28;20030;-62
2021/03/05 04:45:33;;;;;;;6.00;2.38;;;;;;;;;;5003798;28;20091;-62
2021/03/05 04:47:59;;;;;;;8.60;2.92;;;;;;;;;;5001266;28;20332;-62
2021/03/05 04:50:25;;;;;;;10.07;2.75;;;;;;;;;;5023694;28;20042;-60
2021/03/05 04:52:52;;;;;;;11.15;2.95;;;;;;;;;;5022603;28;20073;-62
2021/03/05 04:55:18;;;;;;;8.07;3.10;;;;;;;;;;5017057;28;20044;-60
2021/03/05 04:57:44;;;;;;;10.57;3.22;;;;;;;;;;5021489;28;20057;-61
2021/03/05 05:00:10;;;;;;;7.40;2.58;;;;;;;;;;5002773;28;20042;-62
2021/03/05 05:02:36;;;;;;;9.88;2.45;;;;;;;;;;4981891;28;20047;-62
2021/03/05 05:05:03;;;;;;;10.98;2.67;;;;;;;;;;5011618;28;20037;-62
2021/03/05 05:07:29;;;;;;;7.03;3.00;;;;;;;;;;5024954;28;20053;-59
2021/03/05 05:09:56;;;;;;;9.52;2.78;;;;;;;;;;5036925;28;20417;-60
2021/03/05 05:12:22;;;;;;;8.82;2.92;;;;;;;;;;5042573;28;20052;-61
2021/03/05 05:14:48;;;;;;;12.05;3.10;;;;;;;;;;5039424;28;20041;-62
2021/03/05 05:17:14;;;;;;;10.43;3.10;;;;;;;;;;5025297;28;20053;-61
2021/03/05 05:19:40;;;;;;;7.25;2.65;;;;;;;;;;5017604;28;20123;-61
2021/03/05 05:22:06;;;;;;;8.77;2.97;;;;;;;;;;5024612;28;20127;-60
2021/03/05 05:24:32;;;;;;;8.60;3.10;;;;;;;;;;5019492;28;20049;-59
2021/03/05 05:26:59;;;;;;;6.22;2.20;;;;;;;;;;5042784;28;20056;-60
2021/03/05 05:29:25;;;;;;;6.97;2.25;;;;;;;;;;5024541;28;20127;-59
2021/03/05 05:31:51;;;;;;;8.10;3.10;;;;;;;;;;5038786;28;20406;-59
2021/03/05 05:34:17;;;;;;;5.47;2.42;;;;;;;;;;5043438;28;20105;-60
2021/03/05 05:36:43;;;;;;;7.93;2.67;;;;;;;;;;5038775;28;28458;-61
2021/03/05 05:39:10;;;;;;;8.90;2.50;;;;;;;;;;5025560;28;20093;-60
2021/03/05 05:41:39;;;;;;;6.65;2.30;;;;;;;;;;5029187;28;20093;-59
2021/03/05 05:44:06;;;;;;;7.47;2.17;;;;;;;;;;5008894;28;20045;-59
2021/03/05 05:46:33;;;;;;;11.63;2.40;;;;;;;;;;5013872;28;20053;-60
2021/03/05 05:49:04;;;;;;;6.78;2.15;;;;;;;;;;5043994;28;20045;-59
2021/03/05 05:51:33;;;;;;;6.03;2.17;;;;;;;;;;5032453;28;20057;-60
2021/03/05 05:54:03;;;;;;;8.25;2.25;;;;;;;;;;5009551;28;20029;-59
2021/03/05 05:56:32;;;;;;;6.80;2.22;;;;;;;;;;5003097;28;20057;-62
2021/03/05 05:58:59;;;;;;;5.07;2.15;;;;;;;;;;5006473;28;20033;-62
2021/03/05 06:01:33;;;;;;;7.97;1.98;;;;;;;;;;5002259;28;20069;-62
2021/03/05 06:04:03;;;;;;;13.45;2.17;;;;;;;;;;5023714;28;20041;-61
2021/03/05 06:06:29;;;;;;;7.40;2.08;;;;;;;;;;5022595;28;20037;-62
2021/03/05 06:08:57;;;;;;;9.05;2.45;;;;;;;;;;5041174;28;20053;-62
2021/03/05 06:11:22;;;;;;;7.50;2.35;;;;;;;;;;5038257;28;20544;-62
2021/03/05 06:13:48;;;;;;;6.25;2.35;;;;;;;;;;5022211;28;20034;-61
2021/03/05 06:16:15;;;;;;;4.55;1.73;;;;;;;;;;5006160;28;20034;-62
2021/03/05 06:18:42;;;;;;;8.60;2.40;;;;;;;;;;5019908;28;20352;-62
2021/03/05 06:21:08;;;;;;;6.15;1.58;;;;;;;;;;5012765;28;20037;-62
2021/03/05 06:23:35;;;;;;;5.88;2.20;;;;;;;;;;5019891;28;20061;-62
2021/03/05 06:26:02;;;;;;;7.53;2.22;;;;;;;;;;5006003;28;20119;-62
2021/03/05 06:28:30;;;;;;;7.30;1.83;;;;;;;;;;5003152;28;20469;-62
2021/03/05 06:30:57;;;;;;;3.83;1.67;;;;;;;;;;5024651;28;20038;-61
2021/03/05 06:33:23;;;;;;;6.75;1.83;;;;;;;;;;5011111;28;20048;-59
2021/03/05 06:35:51;;;;;;;5.03;1.92;;;;;;;;;;5007875;28;20435;-62
2021/03/05 06:38:36;;;;;;;3.75;1.55;;;;;;;;;;4993862;28;20053;-61
2021/03/05 06:41:16;;;;;;;6.60;2.05;;;;;;;;;;4985671;28;20410;-60
2021/03/05 06:43:42;;;;;;;4.22;1.70;;;;;;;;;;4992755;28;20038;-62
2021/03/05 06:46:25;;;;;;;4.65;1.67;;;;;;;;;;5024227;28;20046;-61
2021/03/05 06:48:51;;;;;;;5.32;2.25;;;;;;;;;;5003318;28;20030;-61
2021/03/05 06:51:21;;;;;;;6.03;1.65;;;;;;;;;;5006162;28;20041;-62
2021/03/05 06:53:48;;;;;;;5.15;1.80;;;;;;;;;;4999357;28;20534;-59
2021/03/05 06:56:26;;;;;;;6.30;1.42;;;;;;;;;;5004614;28;20046;-62
2021/03/05 06:59:02;;;;;;;4.40;1.48;;;;;;;;;;5007602;28;20033;-62
2021/03/05 07:01:30;;;;;;;4.85;1.48;;;;;;;;;;5041923;28;20069;-62
2021/03/05 07:04:14;;;;;;;4.30;1.80;;;;;;;;;;5031695;28;20053;-61
2021/03/05 07:06:42;;;;;;;6.93;2.00;;;;;;;;;;4981369;28;20027;-61
2021/03/05 07:09:09;;;;;;;3.25;1.60;;;;;;;;;;4985716;28;20053;-60
2021/03/05 07:11:36;;;;;;;8.68;2.28;;;;;;;;;;5001056;28;20038;-59
2021/03/05 07:14:02;;;;;;;4.47;1.48;;;;;;;;;;4995895;28;20061;-59
2021/03/05 07:16:37;;;;;;;5.95;1.65;;;;;;;;;;4985498;28;20065;-59
2021/03/05 07:19:04;;;;;;;3.45;1.13;;;;;;;;;;4980212;28;20074;-62
2021/03/05 07:21:30;;;;;;;5.45;1.73;;;;;;;;;;4983005;28;20038;-62
2021/03/05 07:23:57;;;;;;;6.68;1.80;;;;;;;;;;4982413;28;20049;-62
2021/03/05 07:26:23;;;;;;;3.30;1.30;;;;;;;;;;4995783;28;20049;-58
2021/03/05 07:28:49;;;;;;;8.60;1.40;;;;;;;;;;5001667;28;20034;-61
2021/03/05 07:31:16;;;;;;;4.63;1.08;;;;;;;;;;4975655;28;20060;-61
2021/03/05 07:33:43;;;;;;;5.22;1.80;;;;;;;;;;4976416;28;20110;-62
2021/03/05 07:36:13;;;;;;;5.00;1.38;;;;;;;;;;4975126;28;20034;-59
2021/03/05 07:38:39;;;;;;;4.03;1.38;;;;;;;;;;4976161;28;20069;-62
2021/03/05 07:41:07;;;;;;;3.55;1.27;;;;;;;;;;4972581;28;20054;-63
2021/03/05 07:43:33;;;;;;;3.67;1.40;;;;;;;;;;4972062;28;20054;-60
2021/03/05 07:45:59;;;;;;;3.75;1.33;;;;;;;;;;4977220;28;20051;-60
2021/03/05 07:48:26;;;;;;;5.85;1.17;;;;;;;;;;4977308;28;20079;-62
2021/03/05 07:50:52;;;;;;;3.50;1.10;;;;;;;;;;4971804;28;20050;-62
2021/03/05 07:53:18;;;;;;;3.75;1.17;;;;;;;;;;4973817;28;20055;-61
2021/03/05 07:55:44;;;;;;;9.40;1.40;;;;;;;;;;4964279;28;20046;-62
2021/03/05 07:58:32;;;;;;;5.90;1.45;;;;;;;;;;4980893;28;20043;-62
2021/03/05 08:00:58;;;;;;;5.07;1.27;;;;;;;;;;4980091;28;20086;-62
2021/03/05 08:03:25;;;;;;;4.13;1.30;;;;;;;;;;5001082;28;20042;-61
2021/03/05 08:05:51;;;;;;;3.03;1.15;;;;;;;;;;5011200;28;20056;-62
2021/03/05 08:08:21;;;;;;;8.48;1.52;;;;;;;;;;5022333;28;20041;-60
2021/03/05 08:10:51;;;;;;;4.38;1.30;;;;;;;;;;5023518;28;20060;-60
2021/03/05 08:13:47;;;;;;;3.13;0.98;;;;;;;;;;5019141;28;20069;-61
2021/03/05 08:16:32;;;;;;;7.78;1.85;;;;;;;;;;5014451;28;20068;-58
2021/03/05 08:19:15;;;;;;;4.35;1.60;;;;;;;;;;5001205;28;20045;-61
2021/03/05 08:21:57;;;;;;;4.03;1.00;;;;;;;;;;5001149;28;20048;-60
2021/03/05 08:24:24;;;;;;;4.82;1.30;;;;;;;;;;5021996;28;20034;-60
2021/03/05 08:27:00;;;;;;;4.05;0.95;;;;;;;;;;5019510;28;20090;-61
2021/03/05 08:29:45;;;;;;;5.10;1.25;;;;;;;;;;5023375;28;20046;-59
2021/03/05 08:32:26;;;;;;;7.80;1.08;;;;;;;;;;5019587;28;20081;-60
2021/03/05 08:34:53;;;;;;;5.57;1.38;;;;;;;;;;5023284;28;20038;-61
2021/03/05 08:37:28;;;;;;;4.60;0.90;;;;;;;;;;5021105;28;20049;-62
2021/03/05 08:40:16;;;;;;;2.25;0.90;;;;;;;;;;5026939;28;20085;-62
2021/03/05 08:42:42;;;;;;;7.30;1.00;;;;;;;;;;4988322;28;20053;-61
2021/03/05 08:45:12;;;;;;;3.40;0.85;;;;;;;;;;5004760;28;20042;-61
2021/03/05 08:47:40;;;;;;;3.13;1.13;;;;;;;;;;5001876;28;20140;-60
2021/03/05 08:50:08;;;;;;;4.30;1.02;;;;;;;;;;5024921;28;20061;-63
2021/03/05 08:52:34;;;;;;;4.20;0.80;;;;;;;;;;5018255;28;20165;-60
2021/03/05 08:55:03;;;;;;;4.45;0.98;;;;;;;;;;5004228;28;20046;-60
2021/03/05 08:57:37;;;;;;;2.60;0.80;;;;;;;;;;5004171;28;20042;-61
2021/03/05 09:00:03;;;;;;;6.22;1.20;;;;;;;;;;5018615;28;20053;-60
2021/03/05 09:02:29;;;;;;;6.05;0.95;;;;;;;;;;5022650;28;20033;-60
2021/03/05 09:04:55;;;;;;;7.18;1.10;;;;;;;;;;5019523;28;20033;-61
2021/03/05 09:07:22;;;;;;;3.95;0.68;;;;;;;;;;5021323;28;20135;-61
2021/03/05 09:09:50;;;;;;;5.97;1.17;;;;;;;;;;5019440;28;20046;-61
2021/03/05 09:12:17;;;;;;;6.45;1.00;;;;;;;;;;5022790;28;20138;-61
2021/03/05 09:14:44;;;;;;;4.18;0.93;;;;;;;;;;5018819;28;20076;-62
2021/03/05 09:17:11;;;;;;;1.27;0.73;;;;;;;;;;5023283;28;20076;-61
2021/03/05 09:19:38;;;;;;;1.42;0.57;;;;;;;;;;5017120;28;20070;-61
2021/03/05 09:22:09;;;;;;;5.50;0.90;;;;;;;;;;5022311;28;20097;-62
2021/03/05 09:24:52;;;;;;;1.35;0.70;;;;;;;;;;5011314;28;20038;-62
2021/03/05 09:27:19;;;;;;;4.30;0.63;;;;;;;;;;5004039;28;20053;-62
2021/03/05 09:29:45;;;;;;;3.88;0.85;;;;;;;;;;4999201;28;20045;-59
2021/03/05 09:32:11;;;;;;;5.72;0.82;;;;;;;;;;5004133;28;20022;-61
2021/03/05 09:34:47;;;;;;;7.22;0.60;;;;;;;;;;4986147;28;20065;-61
2021/03/05 09:37:14;;;;;;;1.80;0.47;;;;;;;;;;5022656;28;20070;-61
2021/03/05 09:39:41;;;;;;;2.00;0.28;;;;;;;;;;5017909;28;20045;-62
2021/03/05 09:42:07;;;;;;;0.93;0.40;;;;;;;;;;5021849;28;20041;-60
2021/03/05 09:44:40;;;;;;;5.25;1.02;;;;;;;;;;5001979;28;20124;-62
2021/03/05 09:47:06;;;;;;;0.25;0.20;;;;;;;;;;5002059;28;20101;-61
2021/03/05 09:49:34;;;;;;;0.95;0.40;;;;;;;;;;5001695;28;20038;-60
2021/03/05 09:52:00;;;;;;;1.60;0.43;;;;;;;;;;5017809;28;20057;-62
2021/03/05 09:54:39;;;;;;;1.48;0.52;;;;;;;;;;5022870;28;20045;-62
2021/03/05 09:57:06;;;;;;;0.25;0.25;;;;;;;;;;5001891;28;20050;-63
2021/03/05 09:59:45;;;;;;;1.42;0.40;;;;;;;;;;4986828;28;20096;-62
2021/03/05 10:02:15;;;;;;;1.85;0.30;;;;;;;;;;5016957;28;20044;-62
2021/03/05 10:04:42;;;;;;;1.77;0.40;;;;;;;;;;5022205;28;20026;-62
2021/03/05 10:07:08;;;;;;;2.10;0.40;;;;;;;;;;5016167;28;20061;-61
2021/03/05 10:09:35;;;;;;;3.65;0.43;;;;;;;;;;5021115;28;20064;-62
2021/03/05 10:12:01;;;;;;;1.77;0.40;;;;;;;;;;5005423;28;20037;-63
2021/03/05 10:14:29;;;;;;;1.10;0.45;;;;;;;;;;5001422;28;20046;-62
2021/03/05 10:17:05;;;;;;;3.37;0.70;;;;;;;;;;4998143;28;20038;-61
2021/03/05 10:19:34;;;;;;;2.13;0.45;;;;;;;;;;5001124;28;20095;-60
2021/03/05 10:22:00;;;;;;;1.50;0.40;;;;;;;;;;4999399;28;20049;-62
2021/03/05 10:24:27;;;;;;;0.63;0.30;;;;;;;;;;5002789;28;20046;-61
2021/03/05 10:27:11;;;;;;;2.85;0.40;;;;;;;;;;4998159;28;20119;-59
2021/03/05 10:29:40;;;;;;;1.73;0.52;;;;;;;;;;5001014;28;20049;-62
2021/03/05 10:32:20;;;;;;;0.70;0.40;;;;;;;;;;5003892;28;20077;-63
2021/03/05 10:34:47;;;;;;;1.85;0.40;;;;;;;;;;5021430;28;20073;-62
2021/03/05 10:37:14;;;;;;;1.60;0.57;;;;;;;;;;5012475;28;20038;-60
2021/03/05 10:39:42;;;;;;;1.58;0.40;;;;;;;;;;5002180;28;20038;-62
2021/03/05 10:42:10;;;;;;;1.17;0.30;;;;;;;;;;5000870;28;20054;-64
2021/03/05 10:44:36;;;;;;;3.00;0.30;;;;;;;;;;4983648;28;20066;-61
2021/03/05 10:47:03;;;;;;;0.85;0.40;;;;;;;;;;4983130;28;20062;-60
2021/03/05 10:49:31;;;;;;;1.20;0.32;;;;;;;;;;5021309;28;20053;-62
2021/03/05 10:51:58;;;;;;;0.77;0.40;;;;;;;;;;5021002;28;20050;-61
2021/03/05 10:54:24;;;;;;;2.10;0.38;;;;;;;;;;5015332;28;20086;-62
2021/03/05 10:56:50;;;;;;;3.10;0.63;;;;;;;;;;5022367;28;20045;-62
2021/03/05 10:59:18;;;;;;;2.22;0.55;;;;;;;;;;5018318;28;20070;-62
2021/03/05 11:01:44;;;;;;;1.27;0.50;;;;;;;;;;5020642;28;20041;-60
2021/03/05 11:04:10;;;;;;;1.83;0.25;;;;;;;;;;5003330;28;20057;-62
2021/03/05 11:06:39;;;;;;;0.95;0.35;;;;;;;;;;5020634;28;20049;-59
2021/03/05 11:09:06;;;;;;;0.40;0.15;;;;;;;;;;5000718;28;20041;-62
2021/03/05 11:11:32;;;;;;;0.40;0.25;;;;;;;;;;5022985;28;20114;-62
2021/03/05 11:13:59;;;;;;;2.08;0.40;;;;;;;;;;5019266;28;20041;-61
2021/03/05 11:16:25;;;;;;;0.70;0.30;;;;;;;;;;5005510;28;20051;-62
2021/03/05 11:18:51;;;;;;;5.30;0.40;;;;;;;;;;4994722;28;20124;-62
2021/03/05 11:21:17;;;;;;;0.43;0.30;;;;;;;;;;5017758;28;20055;-60
2021/03/05 11:23:44;;;;;;;2.08;0.20;;;;;;;;;;5018466;28;20090;-60
2021/03/05 11:26:10;;;;;;;0.98;0.22;;;;;;;;;;5006160;28;20033;-62
2021/03/05 11:28:36;;;;;;;0.10;0.10;;;;;;;;;;5022030;28;20100;-60
2021/03/05 11:31:02;;;;;;;2.35;0.30;;;;;;;;;;5039875;28;20044;-61
2021/03/05 11:33:30;;;;;;;0.85;0.20;;;;;;;;;;5024893;28;20033;-62
2021/03/05 11:35:56;;;;;;;0.93;0.40;;;;;;;;;;5020158;28;20062;-61
2021/03/05 11:38:22;;;;;;;1.75;0.50;;;;;;;;;;5003984;28;20049;-63
2021/03/05 11:40:49;;;;;;;1.88;0.40;;;;;;;;;;5000077;28;20041;-62
2021/03/05 11:43:15;;;;;;;3.42;0.40;;;;;;;;;;4991957;28;20041;-62
2021/03/05 11:45:41;;;;;;;1.08;0.32;;;;;;;;;;5001700;28;20046;-63
2021/03/05 11:48:08;;;;;;;1.13;0.30;;;;;;;;;;5005104;28;20042;-62
2021/03/05 11:50:35;;;;;;;1.00;0.40;;;;;;;;;;5000424;28;20034;-61
2021/03/05 11:53:01;;;;;;;3.38;0.63;;;;;;;;;;5020604;28;20049;-62
2021/03/05 11:55:27;;;;;;;1.85;0.30;;;;;;;;;;5016861;28;20034;-62
2021/03/05 11:57:54;;;;;;;1.65;0.47;;;;;;;;;;5004276;28;20052;-62
2021/03/05 12:00:21;;;;;;;0.70;0.30;;;;;;;;;;5007900;28;20048;-61
2021/03/05 12:02:46;;;;;;;1.65;0.30;;;;;;;;;;5044075;28;20041;-62
2021/03/05 12:05:13;;;;;;;0.47;0.30;;;;;;;;;;5038844;28;20037;-62
2021/03/05 12:07:39;;;;;;;0.98;0.17;;;;;;;;;;5042634;28;20055;-62
2021/03/05 12:10:06;;;;;;;1.75;0.30;;;;;;;;;;5044151;28;20048;-61
2021/03/05 12:12:32;;;;;;;3.55;0.32;;;;;;;;;;5023405;28;20049;-62
2021/03/05 12:14:58;;;;;;;0.45;0.38;;;;;;;;;;5042160;28;20041;-62
2021/03/05 12:17:24;;;;;;;0.60;0.20;;;;;;;;;;5008187;28;20045;-62
2021/03/05 12:19:51;;;;;;;0.63;0.30;;;;;;;;;;5023028;28;20044;-62
2021/03/05 12:22:17;;;;;;;3.15;0.30;;;;;;;;;;5004373;28;20069;-61
2021/03/05 12:24:43;;;;;;;1.33;0.32;;;;;;;;;;5025852;28;20046;-60
2021/03/05 12:27:09;;;;;;;1.15;0.40;;;;;;;;;;5012198;28;20037;-61
2021/03/05 12:29:35;;;;;;;1.25;0.43;;;;;;;;;;5025370;28;20053;-61
2021/03/05 12:32:02;;;;;;;0.30;0.25;;;;;;;;;;5037813;28;20045;-62
2021/03/05 12:34:28;;;;;;;0.30;0.30;;;;;;;;;;5043355;28;20045;-61
2021/03/05 12:36:54;;;;;;;2.75;0.55;;;;;;;;;;5021346;28;20041;-61
2021/03/05 12:39:20;;;;;;;3.63;0.88;;;;;;;;;;5043450;28;20041;-62
2021/03/05 12:41:46;;;;;;;1.42;0.40;;;;;;;;;;5017606;28;20092;-61
2021/03/05 12:44:12;;;;;;;2.78;0.50;;;;;;;;;;5006402;28;20038;-62
2021/03/05 12:46:38;;;;;;;0.43;0.30;;;;;;;;;;5002406;28;20054;-62
2021/03/05 12:49:05;;;;;;;0.57;0.32;;;;;;;;;;5004664;28;20060;-61
2021/03/05 12:51:31;;;;;;;0.28;0.28;;;;;;;;;;5005955;28;20052;-62
2021/03/05 12:53:58;;;;;;;2.90;0.50;;;;;;;;;;5019387;28;20045;-61
2021/03/05 12:56:23;;;;;;;0.82;0.35;;;;;;;;;;5026546;28;20061;-60
2021/03/05 12:58:51;;;;;;;2.60;0.40;;;;;;;;;;5021145;28;20114;-62
2021/03/05 13:01:17;;;;;;;0.47;0.28;;;;;;;;;;5041512;28;20045;-61
2021/03/05 13:03:43;;;;;;;1.15;0.38;;;;;;;;;;5008503;28;20034;-60
2021/03/05 13:06:10;;;;;;;2.05;0.60;;;;;;;;;;5022921;28;20033;-62
2021/03/05 13:08:36;;;;;;;1.00;0.40;;;;;;;;;;5020070;28;20033;-62
2021/03/05 13:11:02;;;;;;;1.30;0.35;;;;;;;;;;5019689;28;20037;-62
2021/03/05 13:13:28;;;;;;;0.77;0.35;;;;;;;;;;5019850;28;20034;-60
2021/03/05 13:15:54;;;;;;;2.50;0.50;;;;;;;;;;5022741;28;20157;-61
2021/03/05 13:18:20;;;;;;;2.15;0.40;;;;;;;;;;5006817;28;20169;-62
2021/03/05 13:20:47;;;;;;;1.08;0.30;;;;;;;;;;5042821;28;20057;-60
2021/03/05 13:23:13;;;;;;;0.52;0.30;;;;;;;;;;5019245;28;20048;-62
2021/03/05 13:25:43;;;;;;;0.82;0.40;;;;;;;;;;5023138;28;20042;-62
2021/03/05 13:28:09;;;;;;;4.85;0.95;;;;;;;;;;5006532;28;20135;-60
2021/03/05 13:30:35;;;;;;;2.75;0.52;;;;;;;;;;5003706;28;20046;-61
2021/03/05 13:33:01;;;;;;;4.97;0.50;;;;;;;;;;5006786;28;20082;-60
2021/03/05 13:35:27;;;;;;;1.98;0.32;;;;;;;;;;4999858;28;20062;-60
2021/03/05 13:37:54;;;;;;;1.92;0.50;;;;;;;;;;5003218;28;20061;-60
2021/03/05 13:40:22;;;;;;;2.70;0.57;;;;;;;;;;5010205;28;20122;-61
2021/03/05 13:42:48;;;;;;;2.42;0.40;;;;;;;;;;5025131;28;20042;-61
2021/03/05 13:45:14;;;;;;;0.55;0.30;;;;;;;;;;4983777;28;20038;-60
2021/03/05 13:47:41;;;;;;;1.60;0.40;;;;;;;;;;4985881;28;20046;-59
2021/03/05 13:50:08;;;;;;;0.25;0.20;;;;;;;;;;5017916;28;20046;-60
2021/03/05 13:52:34;;;;;;;3.03;0.43;;;;;;;;;;5026409;28;20104;-61
2021/03/05 13:55:00;;;;;;;0.80;0.30;;;;;;;;;;5014652;28;20107;-62
2021/03/05 13:57:30;;;;;;;0.47;0.28;;;;;;;;;;5006888;28;20045;-63
2021/03/05 13:59:57;;;;;;;0.43;0.32;;;;;;;;;;4999494;28;20034;-62
2021/03/05 14:02:25;;;;;;;2.58;0.47;;;;;;;;;;5002135;28;20050;-62
2021/03/05 14:04:54;;;;;;;1.25;0.40;;;;;;;;;;5003934;28;20050;-62
2021/03/05 14:07:20;;;;;;;3.65;0.80;;;;;;;;;;5024770;28;20099;-62
2021/03/05 14:09:48;;;;;;;2.00;0.60;;;;;;;;;;5026207;28;20034;-61
2021/03/05 14:12:14;;;;;;;2.53;0.68;;;;;;;;;;5039094;28;20041;-61
2021/03/05 14:14:41;;;;;;;1.85;0.50;;;;;;;;;;5026832;28;20045;-61
2021/03/05 14:17:08;;;;;;;2.67;0.35;;;;;;;;;;5022227;28;20055;-61
2021/03/05 14:19:34;;;;;;;1.15;0.50;;;;;;;;;;5025671;28;20052;-61
2021/03/05 14:22:00;;;;;;;0.98;0.47;;;;;;;;;;5022202;28;20048;-61
2021/03/05 14:24:29;;;;;;;3.97;0.70;;;;;;;;;;5026018;28;20077;-62
2021/03/05 14:26:55;;;;;;;0.77;0.30;;;;;;;;;;5038299;28;20048;-62
2021/03/05 14:29:23;;;;;;;2.38;0.50;;;;;;;;;;5027153;28;20045;-60
2021/03/05 14:31:49;;;;;;;2.22;0.47;;;;;;;;;;5001042;28;20052;-61
2021/03/05 14:34:18;;;;;;;1.88;0.63;;;;;;;;;;5019257;28;20048;-60
2021/03/05 14:36:44;;;;;;;3.72;0.47;;;;;;;;;;5020539;28;20029;-62
2021/03/05 14:39:11;;;;;;;5.32;0.60;;;;;;;;;;5042146;28;20049;-61
2021/03/05 14:41:38;;;;;;;0.73;0.30;;;;;;;;;;5037353;28;20064;-61
2021/03/05 14:44:07;;;;;;;0.68;0.30;;;;;;;;;;5011136;28;20026;-62